SBUG

Details ICAO SBUG (URG)
Name Rubem Berta
Region Brazil
Timezone America/Sao_Paulo (UTC-2.0)
Plans Departing 9
Arriving 4
Stats Elevation 256 ft / 78 m (AMSL)
Location -29.781908° -57.037952°
Runways 2
Magnetic Variation 12.677° W
Sunrise 2017-12-15 08:43:25 UTC / 2017-12-15 06:43:25 Local
Sunset 2017-12-15 22:46:07 UTC / 2017-12-15 20:46:07 Local
Advertisement - Login to hide

Runways

ID Width Length Bearing (true) Bearing (mag) Surface Threshold Offset Overrun Length
04 202 ft / 62 m 2,730 ft / 832 m 35.02° 47.70° Grass 0 ft / 0 m 0 ft / 0 m
09 98 ft / 30 m 4,914 ft / 1,498 m 84.72° 97.40° Asphalt 0 ft / 0 m 195 ft / 59 m
22 202 ft / 62 m 2,730 ft / 832 m 215.02° 227.70° Grass 0 ft / 0 m 0 ft / 0 m
27 98 ft / 30 m 4,914 ft / 1,498 m 264.72° 277.40° Asphalt 0 ft / 0 m 195 ft / 59 m

Map

Weather


0- 5 10 15 20 25 30 35+ Temperature / ° C

Clouds and Precipitation
Forecast for 2017-12-15 06:00 UTC. Updated an hour ago

Ground ~20,000 ft ~40,000 ft Winds

METAR

Not found

TAF

TAF SBUG 142100Z 1500/1524 04003KT CAVOK TN20/1509Z TX32/1517Z RMK PDN

Frequencies

Tower 118.10 MHz URUGUAIANA RDO
Tower 125.90 MHz URUGUAIANA RDO
Warning: Do not use this data for real-world aviation or navigation. No guarantee of current accuracy is given.